createdAt,value
2018-12-31T00:00:27.032Z,30.07
2018-12-31T00:01:26.986Z,30.26
2018-12-31T00:02:26.941Z,30.07
2018-12-31T00:03:26.893Z,30.26
2018-12-31T00:04:26.846Z,30.07
2018-12-31T00:05:26.799Z,30.16
2018-12-31T00:06:26.752Z,30.05
2018-12-31T00:07:26.707Z,30.07
2018-12-31T00:08:26.660Z,30.16
2018-12-31T00:09:26.612Z,30.16
2018-12-31T00:10:26.565Z,30.26
2018-12-31T00:11:26.519Z,30.26
2018-12-31T00:12:26.472Z,30.07
2018-12-31T00:13:26.423Z,30.35
2018-12-31T00:14:26.378Z,30.07
2018-12-31T00:15:26.332Z,30.16
2018-12-31T00:16:26.284Z,30.26
2018-12-31T00:17:26.239Z,30.24
2018-12-31T00:18:26.190Z,30.26
2018-12-31T00:19:26.146Z,30.07
2018-12-31T00:20:26.098Z,30.16
2018-12-31T00:21:26.050Z,30.16
2018-12-31T00:22:26.005Z,30.15
2018-12-31T00:23:25.957Z,30.07
2018-12-31T00:24:25.911Z,30.34
2018-12-31T00:25:25.863Z,30.35
2018-12-31T00:26:25.817Z,30.35
2018-12-31T00:27:25.770Z,30.26
2018-12-31T00:28:25.724Z,30.26
2018-12-31T00:29:25.676Z,30.16
2018-12-31T00:30:25.630Z,30.16
2018-12-31T00:31:25.583Z,30.26
2018-12-31T00:32:25.537Z,30.07
2018-12-31T00:33:25.490Z,30.16
2018-12-31T00:34:25.443Z,30.26
2018-12-31T00:35:25.396Z,30.16
2018-12-31T00:36:25.350Z,30.16
2018-12-31T00:37:25.620Z,30.26
2018-12-31T00:38:25.254Z,30.16
2018-12-31T00:39:25.209Z,30.35
2018-12-31T00:40:25.163Z,29.97
2018-12-31T00:41:25.115Z,30.26
2018-12-31T00:42:25.069Z,29.97
2018-12-31T00:43:25.021Z,30.45
2018-12-31T00:44:24.976Z,30.35
2018-12-31T00:45:24.930Z,30.07
2018-12-31T00:46:24.882Z,30.45
2018-12-31T00:47:24.835Z,30.07
2018-12-31T00:48:24.789Z,30.16
2018-12-31T00:49:24.741Z,29.97
2018-12-31T00:50:24.694Z,29.87
2018-12-31T00:51:24.649Z,29.86
2018-12-31T00:52:24.600Z,30.35
2018-12-31T00:53:24.604Z,29.87
2018-12-31T00:54:24.508Z,29.97
2018-12-31T00:55:24.460Z,29.97
2018-12-31T00:56:24.414Z,29.87
2018-12-31T00:57:24.367Z,29.97
2018-12-31T00:58:24.319Z,29.87
2018-12-31T00:59:24.274Z,29.87
2018-12-31T01:00:24.228Z,29.87
2018-12-31T01:01:24.179Z,29.87
2018-12-31T01:02:25.781Z,29.97
2018-12-31T01:03:24.086Z,30.34
2018-12-31T01:04:24.040Z,30.07
2018-12-31T01:05:23.992Z,30.35
2018-12-31T01:06:23.945Z,30.35
2018-12-31T01:07:23.899Z,29.87
2018-12-31T01:08:23.851Z,29.87
2018-12-31T01:09:23.806Z,29.87
2018-12-31T01:10:23.758Z,29.87
2018-12-31T01:11:23.713Z,29.87
2018-12-31T01:12:23.666Z,29.97
2018-12-31T01:13:23.619Z,30.26
2018-12-31T01:14:23.627Z,30.16
2018-12-31T01:15:23.527Z,30.16
2018-12-31T01:16:23.479Z,30.16
2018-12-31T01:17:23.431Z,30.26
2018-12-31T01:18:23.385Z,30.07
2018-12-31T01:19:23.338Z,30.16
2018-12-31T01:20:23.293Z,30.26
2018-12-31T01:21:23.247Z,30.16
2018-12-31T01:22:23.198Z,30.15
2018-12-31T01:23:23.151Z,30.16
2018-12-31T01:24:23.105Z,30.16
2018-12-31T01:25:23.057Z,30.35
2018-12-31T01:26:23.009Z,30.35
2018-12-31T01:27:22.964Z,30.16
2018-12-31T01:28:22.917Z,30.26
2018-12-31T01:29:22.870Z,30.16
2018-12-31T01:30:22.823Z,30.26
2018-12-31T01:31:22.777Z,30.16
2018-12-31T01:32:22.731Z,30.35
2018-12-31T01:33:22.682Z,30.05
2018-12-31T01:34:22.637Z,30.16
2018-12-31T01:35:22.640Z,30.16
2018-12-31T01:36:22.594Z,30.16
2018-12-31T01:37:22.496Z,30.16
2018-12-31T01:38:22.450Z,30.26
2018-12-31T01:39:22.403Z,30.26
2018-12-31T01:40:22.356Z,30.16
2018-12-31T01:41:22.309Z,30.16
2018-12-31T01:42:22.263Z,30.16
2018-12-31T01:43:22.216Z,30.07
2018-12-31T01:44:22.169Z,30.16
2018-12-31T01:45:22.122Z,30.16
2018-12-31T01:46:22.075Z,30.16
2018-12-31T01:47:22.029Z,30.16
2018-12-31T01:48:21.982Z,30.16
2018-12-31T01:49:21.935Z,30.16
2018-12-31T01:50:21.887Z,30.07
2018-12-31T01:51:21.842Z,30.07
2018-12-31T01:52:21.795Z,30.26
2018-12-31T01:53:21.748Z,30.26
2018-12-31T01:54:21.701Z,30.07
2018-12-31T01:55:21.662Z,30.16
2018-12-31T01:56:21.609Z,30.16
2018-12-31T01:57:21.559Z,30.16
2018-12-31T01:58:21.518Z,30.07
2018-12-31T01:59:21.468Z,30.16
2018-12-31T02:00:21.424Z,30.07
2018-12-31T02:01:21.374Z,30.07
2018-12-31T02:02:21.329Z,30.07
2018-12-31T02:03:21.291Z,30.16
2018-12-31T02:04:21.550Z,30.16
2018-12-31T02:05:21.186Z,30.16
2018-12-31T02:06:21.141Z,30.16
2018-12-31T02:07:21.093Z,30.07
2018-12-31T02:08:21.047Z,30.16
2018-12-31T02:09:21.000Z,30.16
2018-12-31T02:10:20.953Z,30.16
2018-12-31T02:11:20.907Z,30.16
2018-12-31T02:12:20.860Z,30.26
2018-12-31T02:13:20.815Z,30.16
2018-12-31T02:14:20.769Z,30.07
2018-12-31T02:15:20.720Z,30.07
2018-12-31T02:16:20.676Z,30.07
2018-12-31T02:17:20.628Z,30.26
2018-12-31T02:18:20.628Z,30.16
2018-12-31T02:19:20.533Z,30.16
2018-12-31T02:20:20.488Z,30.26
2018-12-31T02:21:20.439Z,30.26
2018-12-31T02:22:20.392Z,30.07
2018-12-31T02:23:20.346Z,30.45
2018-12-31T02:24:20.299Z,29.87
2018-12-31T02:25:20.252Z,30.35
2018-12-31T02:26:20.205Z,30.05
2018-12-31T02:27:20.158Z,30.07
2018-12-31T02:28:20.112Z,29.87
2018-12-31T02:29:20.065Z,30.16
2018-12-31T02:30:20.030Z,29.97
2018-12-31T02:31:19.972Z,29.97
2018-12-31T02:32:19.925Z,30.45
2018-12-31T02:33:19.905Z,29.87
2018-12-31T02:34:19.833Z,29.97
2018-12-31T02:35:19.785Z,30.35
2018-12-31T02:36:19.743Z,30.26
2018-12-31T02:37:19.690Z,30.35
2018-12-31T02:38:19.645Z,30.16
2018-12-31T02:39:19.648Z,30.07
2018-12-31T02:40:19.604Z,29.87
2018-12-31T02:41:19.504Z,29.97
2018-12-31T02:42:19.459Z,29.97
2018-12-31T02:43:19.423Z,29.97
2018-12-31T02:44:19.363Z,29.87
2018-12-31T02:45:19.316Z,29.87
2018-12-31T02:46:19.269Z,30.07
2018-12-31T02:47:19.224Z,29.97
2018-12-31T02:48:19.198Z,30.45
2018-12-31T02:49:19.131Z,29.87
2018-12-31T02:50:19.083Z,30.16
2018-12-31T02:51:19.036Z,30.45
2018-12-31T02:52:18.994Z,30.35
2018-12-31T02:53:18.943Z,30.26
2018-12-31T02:54:18.896Z,29.87
2018-12-31T02:55:18.919Z,29.97
2018-12-31T02:56:18.803Z,30.07
2018-12-31T02:57:18.756Z,29.87
2018-12-31T02:58:18.711Z,30.07
2018-12-31T02:59:18.664Z,30.07
2018-12-31T03:00:18.619Z,30.07
2018-12-31T03:01:18.573Z,30.45
2018-12-31T03:02:18.572Z,30.07
2018-12-31T03:03:18.477Z,30.45
2018-12-31T03:04:18.430Z,29.87
2018-12-31T03:05:18.383Z,30.07
2018-12-31T03:06:18.339Z,29.97
2018-12-31T03:07:18.289Z,29.87
2018-12-31T03:08:18.244Z,29.87
2018-12-31T03:09:18.200Z,29.97
2018-12-31T03:10:18.163Z,30.35
2018-12-31T03:11:18.104Z,29.87
2018-12-31T03:12:18.057Z,29.87
2018-12-31T03:13:18.008Z,29.97
2018-12-31T03:14:17.962Z,29.97
2018-12-31T03:15:17.914Z,29.87
2018-12-31T03:16:17.880Z,29.87
2018-12-31T03:17:17.823Z,29.87
2018-12-31T03:18:17.775Z,29.87
2018-12-31T03:19:17.729Z,30.07
2018-12-31T03:20:17.682Z,30.07
2018-12-31T03:21:17.636Z,29.87
2018-12-31T03:22:17.589Z,29.87
2018-12-31T03:23:17.543Z,30.16
2018-12-31T03:24:17.496Z,30.07
2018-12-31T03:25:17.448Z,29.87
2018-12-31T03:26:17.718Z,29.97
2018-12-31T03:27:17.671Z,29.87
2018-12-31T03:28:17.308Z,30.07
2018-12-31T03:29:17.261Z,30.45
2018-12-31T03:30:17.216Z,30.07
2018-12-31T03:31:17.169Z,30.16
2018-12-31T03:32:17.123Z,30.07
2018-12-31T03:33:17.078Z,29.97
2018-12-31T03:34:17.029Z,29.97
2018-12-31T03:35:16.981Z,29.97
2018-12-31T03:36:16.935Z,29.87
2018-12-31T03:37:16.887Z,29.97
2018-12-31T03:38:16.841Z,29.87
2018-12-31T03:39:16.795Z,30.07
2018-12-31T03:40:16.748Z,30.45
2018-12-31T03:41:16.700Z,29.87
2018-12-31T03:42:16.654Z,29.87
2018-12-31T03:43:16.609Z,29.87
2018-12-31T03:44:16.561Z,29.87
2018-12-31T03:45:16.517Z,29.97
2018-12-31T03:46:16.470Z,29.87
2018-12-31T03:47:16.426Z,30.45
2018-12-31T03:48:16.375Z,30.45
2018-12-31T03:49:16.326Z,29.87
2018-12-31T03:50:16.281Z,29.87
2018-12-31T03:51:16.234Z,29.97
2018-12-31T03:52:16.230Z,29.87
2018-12-31T03:53:16.140Z,29.87
2018-12-31T03:54:16.093Z,30.07
2018-12-31T03:55:16.047Z,30.07
2018-12-31T03:56:16.002Z,29.97
2018-12-31T03:57:15.952Z,29.97
2018-12-31T03:58:15.906Z,30.07
2018-12-31T03:59:15.860Z,29.87
2018-12-31T04:00:15.813Z,29.87
2018-12-31T04:01:15.766Z,29.87
2018-12-31T04:02:15.721Z,29.97
2018-12-31T04:03:15.673Z,29.97
2018-12-31T04:04:15.677Z,30.07
2018-12-31T04:05:15.579Z,30.07
2018-12-31T04:06:15.535Z,30.45
2018-12-31T04:07:15.485Z,30.45
2018-12-31T04:08:15.440Z,30.16
2018-12-31T04:09:15.393Z,30.35
2018-12-31T04:10:15.346Z,30.26
2018-12-31T04:11:15.299Z,30.16
2018-12-31T04:12:15.252Z,30.07
2018-12-31T04:13:15.204Z,30.07
2018-12-31T04:14:15.159Z,30.16
2018-12-31T04:15:15.112Z,30.16
2018-12-31T04:16:15.066Z,30.16
2018-12-31T04:17:15.018Z,30.16
2018-12-31T04:18:14.986Z,30.16
2018-12-31T04:19:14.925Z,30.35
2018-12-31T04:20:14.877Z,30.35
2018-12-31T04:21:14.837Z,30.45
2018-12-31T04:22:14.784Z,30.26
2018-12-31T04:23:14.739Z,30.26
2018-12-31T04:24:14.690Z,30.35
2018-12-31T04:25:14.644Z,30.35
2018-12-31T04:26:14.597Z,30.26
2018-12-31T04:27:14.600Z,30.26
2018-12-31T04:28:14.507Z,30.26
2018-12-31T04:29:14.457Z,30.26
2018-12-31T04:30:14.411Z,30.26
2018-12-31T04:31:14.365Z,30.16
2018-12-31T04:32:14.358Z,30.16
2018-12-31T04:33:14.270Z,30.16
2018-12-31T04:34:14.224Z,30.16
2018-12-31T04:35:14.178Z,30.16
2018-12-31T04:36:14.130Z,30.16
2018-12-31T04:37:14.205Z,30.16
2018-12-31T04:38:14.036Z,30.07
2018-12-31T04:39:13.989Z,30.07
2018-12-31T04:40:13.943Z,30.16
2018-12-31T04:41:13.895Z,30.16
2018-12-31T04:42:13.850Z,30.16
2018-12-31T04:43:13.803Z,30.26
2018-12-31T04:44:13.758Z,30.07
2018-12-31T04:45:13.709Z,30.16
2018-12-31T04:46:13.662Z,30.26
2018-12-31T04:47:13.619Z,30.26
2018-12-31T04:48:13.621Z,30.26
2018-12-31T04:49:13.524Z,30.26
2018-12-31T04:50:13.475Z,30.35
2018-12-31T04:51:13.433Z,30.26
2018-12-31T04:52:13.382Z,30.26
2018-12-31T04:53:13.336Z,30.35
2018-12-31T04:54:13.292Z,30.26
2018-12-31T04:55:13.242Z,30.35
2018-12-31T04:56:13.204Z,30.35
2018-12-31T04:57:13.148Z,30.35
2018-12-31T04:58:13.107Z,30.26
2018-12-31T04:59:13.055Z,30.35
2018-12-31T05:00:13.008Z,30.26
2018-12-31T05:01:12.961Z,30.26
2018-12-31T05:02:12.915Z,30.35
2018-12-31T05:03:12.869Z,30.26
2018-12-31T05:04:12.820Z,30.26
2018-12-31T05:05:12.775Z,30.35
2018-12-31T05:06:12.728Z,30.26
2018-12-31T05:07:12.680Z,30.26
2018-12-31T05:08:12.635Z,30.26
2018-12-31T05:09:12.587Z,30.26
2018-12-31T05:10:12.542Z,30.07
2018-12-31T05:11:12.494Z,30.26
2018-12-31T05:12:12.448Z,30.26
2018-12-31T05:13:12.400Z,30.26
2018-12-31T05:14:12.355Z,30.26
2018-12-31T05:15:12.306Z,30.35
2018-12-31T05:16:12.291Z,30.26
2018-12-31T05:17:12.214Z,30.35
2018-12-31T05:18:12.169Z,30.26
2018-12-31T05:19:12.120Z,30.35
2018-12-31T05:20:12.074Z,30.26
2018-12-31T05:21:12.026Z,30.45
2018-12-31T05:22:11.980Z,30.26
2018-12-31T05:23:11.934Z,30.26
2018-12-31T05:24:11.892Z,30.16
2018-12-31T05:25:11.841Z,30.35
2018-12-31T05:26:11.794Z,30.35
2018-12-31T05:27:11.749Z,30.35
2018-12-31T05:28:11.700Z,30.35
2018-12-31T05:29:11.652Z,30.16
2018-12-31T05:30:11.656Z,30.07
2018-12-31T05:31:11.560Z,29.87
2018-12-31T05:32:11.512Z,29.97
2018-12-31T05:33:11.466Z,30.07
2018-12-31T05:34:11.422Z,30.16
2018-12-31T05:35:11.373Z,29.97
2018-12-31T05:36:11.327Z,29.97
2018-12-31T05:37:11.279Z,29.97
2018-12-31T05:38:11.232Z,29.87
2018-12-31T05:39:11.185Z,29.97
2018-12-31T05:40:11.140Z,29.97
2018-12-31T05:41:11.092Z,30.07
2018-12-31T05:42:11.047Z,29.87
2018-12-31T05:43:10.999Z,29.87
2018-12-31T05:44:10.953Z,29.97
2018-12-31T05:45:10.905Z,29.87
2018-12-31T05:46:10.859Z,29.77
2018-12-31T05:47:10.816Z,29.97
2018-12-31T05:48:10.769Z,29.77
2018-12-31T05:49:10.718Z,29.87
2018-12-31T05:50:10.684Z,30.35
2018-12-31T05:51:10.626Z,29.87
2018-12-31T05:52:10.629Z,29.97
2018-12-31T05:53:10.530Z,29.97
2018-12-31T05:54:10.486Z,30.45
2018-12-31T05:55:10.439Z,30.83
2018-12-31T05:56:10.392Z,30.55
2018-12-31T05:57:10.344Z,30.55
2018-12-31T05:58:10.304Z,29.87
2018-12-31T05:59:10.252Z,30.55
2018-12-31T06:00:10.205Z,29.77
2018-12-31T06:01:10.157Z,29.77
2018-12-31T06:02:10.111Z,30.55
2018-12-31T06:03:10.066Z,29.87
2018-12-31T06:04:10.018Z,29.87
2018-12-31T06:05:09.973Z,30.55
2018-12-31T06:06:09.924Z,30.55
2018-12-31T06:07:09.878Z,30.26
2018-12-31T06:08:09.833Z,30.26
2018-12-31T06:09:09.784Z,30.55
2018-12-31T06:10:09.737Z,30.16
2018-12-31T06:11:09.692Z,30.35
2018-12-31T06:12:09.645Z,30.35
2018-12-31T06:13:09.597Z,30.16
2018-12-31T06:14:09.553Z,30.16
2018-12-31T06:15:09.506Z,30.16
2018-12-31T06:16:09.457Z,30.16
2018-12-31T06:17:09.411Z,30.16
2018-12-31T06:18:09.364Z,30.16
2018-12-31T06:19:09.318Z,30.55
2018-12-31T06:20:09.272Z,30.45
2018-12-31T06:21:09.225Z,30.26
2018-12-31T06:22:09.177Z,30.45
2018-12-31T06:23:09.131Z,30.45
2018-12-31T06:24:10.572Z,30.55
2018-12-31T06:25:09.037Z,30.45
2018-12-31T06:26:08.990Z,30.45
2018-12-31T06:27:08.943Z,30.45
2018-12-31T06:28:08.897Z,30.55
2018-12-31T06:29:08.852Z,30.45
2018-12-31T06:30:08.808Z,30.55
2018-12-31T06:31:08.757Z,30.55
2018-12-31T06:32:08.710Z,30.35
2018-12-31T06:33:08.662Z,30.55
2018-12-31T06:34:08.617Z,30.35
2018-12-31T06:35:08.570Z,30.45
2018-12-31T06:36:08.562Z,30.55
2018-12-31T06:37:08.478Z,30.45
2018-12-31T06:38:08.429Z,30.35
2018-12-31T06:39:08.382Z,30.35
2018-12-31T06:40:08.337Z,30.45
2018-12-31T06:41:08.288Z,30.35
2018-12-31T06:42:08.241Z,30.35
2018-12-31T06:43:08.196Z,30.45
2018-12-31T06:44:08.150Z,30.55
2018-12-31T06:45:08.103Z,30.64
2018-12-31T06:46:08.055Z,30.55
2018-12-31T06:47:08.012Z,30.55
2018-12-31T06:48:07.963Z,30.45
2018-12-31T06:49:07.915Z,30.55
2018-12-31T06:50:07.869Z,30.55
2018-12-31T06:51:07.822Z,30.55
2018-12-31T06:52:07.775Z,30.45
2018-12-31T06:53:07.729Z,30.83
2018-12-31T06:54:07.684Z,30.55
2018-12-31T06:55:07.635Z,30.64
2018-12-31T06:56:07.589Z,30.55
2018-12-31T06:57:07.591Z,30.55
2018-12-31T06:58:07.495Z,30.45
2018-12-31T06:59:07.448Z,30.64
2018-12-31T07:00:07.402Z,30.55
2018-12-31T07:01:07.670Z,30.55
2018-12-31T07:02:07.312Z,30.64
2018-12-31T07:03:07.263Z,30.64
2018-12-31T07:04:07.214Z,30.55
2018-12-31T07:05:07.167Z,30.55
2018-12-31T07:06:07.121Z,30.64
2018-12-31T07:07:07.074Z,30.64
2018-12-31T07:08:07.026Z,30.83
2018-12-31T07:09:06.979Z,30.55
2018-12-31T07:10:06.943Z,30.64
2018-12-31T07:11:06.887Z,30.64
2018-12-31T07:12:06.840Z,30.64
2018-12-31T07:13:06.793Z,30.55
2018-12-31T07:14:06.747Z,30.55
2018-12-31T07:15:06.700Z,30.83
2018-12-31T07:16:06.654Z,30.64
2018-12-31T07:17:06.607Z,30.64
2018-12-31T07:18:06.610Z,30.74
2018-12-31T07:19:06.515Z,30.64
2018-12-31T07:20:06.467Z,30.74
2018-12-31T07:21:06.419Z,30.64
2018-12-31T07:22:06.373Z,30.55
2018-12-31T07:23:06.327Z,30.55
2018-12-31T07:24:06.280Z,30.64
2018-12-31T07:25:06.233Z,30.55
2018-12-31T07:26:06.186Z,30.55
2018-12-31T07:27:06.139Z,30.74
2018-12-31T07:28:06.093Z,30.64
2018-12-31T07:29:06.046Z,30.64
2018-12-31T07:30:05.999Z,30.55
2018-12-31T07:31:05.954Z,30.55
2018-12-31T07:32:05.908Z,30.64
2018-12-31T07:33:05.862Z,30.93
2018-12-31T07:34:05.813Z,30.83
2018-12-31T07:35:05.768Z,30.64
2018-12-31T07:36:05.719Z,30.83
2018-12-31T07:37:05.676Z,30.64
2018-12-31T07:38:05.629Z,30.83
2018-12-31T07:39:05.579Z,30.83
2018-12-31T07:40:05.582Z,30.74
2018-12-31T07:41:05.555Z,30.83
2018-12-31T07:42:05.439Z,30.74
2018-12-31T07:43:05.392Z,31.12
2018-12-31T07:44:05.345Z,30.93
2018-12-31T07:45:05.298Z,30.74
2018-12-31T07:46:05.251Z,30.83
2018-12-31T07:47:05.209Z,30.74
2018-12-31T07:48:05.157Z,30.83
2018-12-31T07:49:05.111Z,30.74
2018-12-31T07:50:05.064Z,31.12
2018-12-31T07:51:05.018Z,31.03
2018-12-31T07:52:04.975Z,31.03
2018-12-31T07:53:04.924Z,30.83
2018-12-31T07:54:04.877Z,30.55
2018-12-31T07:55:04.831Z,31.03
2018-12-31T07:56:04.784Z,30.83
2018-12-31T07:57:04.737Z,31.03
2018-12-31T07:58:04.690Z,31.12
2018-12-31T07:59:04.644Z,30.55
2018-12-31T08:00:04.597Z,31.12
2018-12-31T08:01:04.603Z,31.03
2018-12-31T08:02:04.506Z,30.74
2018-12-31T08:03:04.457Z,30.93
2018-12-31T08:04:04.411Z,31.03
2018-12-31T08:05:04.365Z,30.93
2018-12-31T08:06:04.317Z,31.03
2018-12-31T08:07:04.270Z,30.64
2018-12-31T08:08:04.224Z,31.03
2018-12-31T08:09:04.179Z,30.55
2018-12-31T08:10:04.132Z,31.12
2018-12-31T08:11:04.083Z,31.12
2018-12-31T08:12:04.037Z,30.93
2018-12-31T08:13:03.990Z,30.64
2018-12-31T08:14:03.943Z,31.12
2018-12-31T08:15:03.897Z,30.93
2018-12-31T08:16:03.850Z,30.64
2018-12-31T08:17:03.802Z,30.64
2018-12-31T08:18:03.772Z,30.64
2018-12-31T08:19:03.710Z,30.74
2018-12-31T08:20:03.669Z,30.83
2018-12-31T08:21:03.632Z,30.64
2018-12-31T08:22:03.569Z,30.74
2018-12-31T08:23:03.523Z,30.55
2018-12-31T08:24:03.477Z,30.55
2018-12-31T08:25:03.428Z,30.55
2018-12-31T08:26:03.433Z,30.83
2018-12-31T08:27:03.337Z,30.55
2018-12-31T08:28:03.290Z,30.55
2018-12-31T08:29:03.243Z,30.55
2018-12-31T08:30:03.196Z,30.55
2018-12-31T08:31:03.151Z,30.55
2018-12-31T08:32:03.103Z,30.55
2018-12-31T08:33:03.056Z,30.64
2018-12-31T08:34:03.010Z,30.55
2018-12-31T08:35:02.965Z,30.64
2018-12-31T08:36:02.919Z,30.64
2018-12-31T08:37:02.869Z,30.64
2018-12-31T08:38:02.822Z,30.64
2018-12-31T08:39:02.779Z,30.55
2018-12-31T08:40:02.733Z,30.64
2018-12-31T08:41:02.683Z,30.74
2018-12-31T08:42:02.636Z,30.64
2018-12-31T08:43:02.589Z,30.93
2018-12-31T08:44:02.543Z,30.64
2018-12-31T08:45:02.496Z,30.74
2018-12-31T08:46:02.451Z,31.12
2018-12-31T08:47:02.403Z,31.12
2018-12-31T08:48:02.357Z,31.03
2018-12-31T08:49:02.309Z,30.64
2018-12-31T08:50:03.367Z,30.64
2018-12-31T08:51:02.216Z,31.12
2018-12-31T08:52:02.177Z,30.64
2018-12-31T08:53:02.123Z,31.12
2018-12-31T08:54:02.077Z,30.64
2018-12-31T08:55:02.031Z,30.93
2018-12-31T08:56:01.984Z,30.45
2018-12-31T08:57:01.938Z,30.93
2018-12-31T08:58:01.907Z,30.93
2018-12-31T08:59:01.842Z,30.83
2018-12-31T09:00:01.800Z,31.22
2018-12-31T09:01:01.749Z,31.03
2018-12-31T09:02:01.717Z,31.12
2018-12-31T09:03:01.663Z,30.64
2018-12-31T09:04:01.610Z,30.76
2018-12-31T09:05:01.563Z,30.93
2018-12-31T09:06:01.517Z,30.45
2018-12-31T09:07:01.470Z,30.74
2018-12-31T09:08:01.423Z,30.83
2018-12-31T09:09:01.376Z,30.85
2018-12-31T09:10:01.330Z,30.64
2018-12-31T09:11:01.283Z,30.64
2018-12-31T09:12:01.236Z,30.66
2018-12-31T09:13:01.191Z,31.12
2018-12-31T09:14:01.143Z,30.83
2018-12-31T09:15:01.101Z,30.74
2018-12-31T09:16:01.050Z,30.93
2018-12-31T09:17:01.005Z,30.74
2018-12-31T09:18:00.957Z,30.94
2018-12-31T09:19:00.909Z,30.45
2018-12-31T09:20:00.863Z,30.85
2018-12-31T09:21:00.816Z,30.74
2018-12-31T09:22:00.773Z,30.76
2018-12-31T09:23:00.723Z,30.76
2018-12-31T09:24:00.678Z,30.74
2018-12-31T09:25:00.630Z,30.64
2018-12-31T09:26:00.633Z,30.76
2018-12-31T09:27:00.537Z,31.03
2018-12-31T09:28:00.493Z,30.74
2018-12-31T09:29:00.443Z,30.74
2018-12-31T09:30:00.397Z,30.46
2018-12-31T09:31:00.350Z,30.76
2018-12-31T09:32:00.304Z,30.66
2018-12-31T09:33:00.257Z,30.56
2018-12-31T09:34:00.211Z,30.66
2018-12-31T09:35:00.163Z,30.66
2018-12-31T09:36:00.118Z,30.66
2018-12-31T09:37:00.071Z,30.85
2018-12-31T09:38:00.025Z,30.85
2018-12-31T09:38:59.978Z,30.56
2018-12-31T09:39:59.932Z,30.56
2018-12-31T09:40:59.885Z,30.56
2018-12-31T09:41:59.839Z,30.37
2018-12-31T09:42:59.792Z,30.56
2018-12-31T09:43:59.745Z,30.56
2018-12-31T09:44:59.698Z,30.66
2018-12-31T09:45:59.652Z,30.56
2018-12-31T09:46:59.655Z,30.56
2018-12-31T09:47:59.609Z,30.56
2018-12-31T09:48:59.512Z,30.46
2018-12-31T09:49:59.468Z,30.37
2018-12-31T09:50:59.419Z,30.66
2018-12-31T09:51:59.373Z,30.56
2018-12-31T09:52:59.326Z,30.46
2018-12-31T09:53:59.283Z,30.56
2018-12-31T09:54:59.232Z,30.56
2018-12-31T09:55:59.187Z,30.46
2018-12-31T09:56:59.140Z,30.85
2018-12-31T09:57:59.093Z,30.46
2018-12-31T09:58:59.047Z,30.56
2018-12-31T09:59:59.000Z,30.46
2018-12-31T10:00:59.004Z,30.46
2018-12-31T10:01:58.906Z,30.56
2018-12-31T10:02:58.861Z,30.46
2018-12-31T10:03:58.814Z,30.56
2018-12-31T10:04:58.767Z,30.66
2018-12-31T10:05:58.721Z,30.46
2018-12-31T10:06:58.673Z,30.37
2018-12-31T10:07:58.628Z,30.56
2018-12-31T10:08:58.580Z,29.89
2018-12-31T10:09:58.536Z,29.79
2018-12-31T10:10:58.488Z,29.98
2018-12-31T10:11:58.441Z,29.98
2018-12-31T10:12:58.395Z,30.08
2018-12-31T10:13:58.349Z,29.98
2018-12-31T10:14:58.302Z,29.89
2018-12-31T10:15:58.256Z,30.37
2018-12-31T10:16:58.209Z,30.27
2018-12-31T10:17:58.162Z,29.98
2018-12-31T10:18:58.116Z,30.37
2018-12-31T10:19:58.071Z,30.27
2018-12-31T10:20:58.023Z,30.27
2018-12-31T10:21:57.976Z,30.37
2018-12-31T10:22:57.930Z,30.27
2018-12-31T10:23:57.882Z,30.37
2018-12-31T10:24:57.836Z,29.98
2018-12-31T10:25:57.791Z,29.89
2018-12-31T10:26:57.744Z,29.98
2018-12-31T10:27:57.700Z,29.89
2018-12-31T10:28:57.655Z,29.89
2018-12-31T10:29:57.655Z,30.37
2018-12-31T10:30:57.561Z,30.37
2018-12-31T10:31:57.512Z,30.37
2018-12-31T10:32:57.465Z,30.18
2018-12-31T10:33:57.420Z,30.27
2018-12-31T10:34:57.380Z,30.18
2018-12-31T10:35:57.325Z,30.08
2018-12-31T10:36:57.279Z,30.27
2018-12-31T10:37:57.233Z,30.18
2018-12-31T10:38:57.185Z,30.18
2018-12-31T10:39:57.140Z,29.79
2018-12-31T10:40:57.093Z,29.79
2018-12-31T10:41:57.047Z,29.60
2018-12-31T10:42:57.001Z,29.60
2018-12-31T10:43:56.955Z,29.69
2018-12-31T10:44:56.908Z,29.80
2018-12-31T10:45:56.861Z,29.79
2018-12-31T10:46:56.816Z,29.69
2018-12-31T10:47:56.769Z,29.60
2018-12-31T10:48:56.722Z,30.08
2018-12-31T10:49:56.676Z,30.08
2018-12-31T10:50:56.630Z,30.18
2018-12-31T10:51:56.586Z,30.18
2018-12-31T10:52:56.535Z,30.08
2018-12-31T10:53:56.490Z,29.98
2018-12-31T10:54:56.445Z,29.89
2018-12-31T10:55:56.398Z,30.46
2018-12-31T10:56:56.351Z,30.18
2018-12-31T10:57:56.305Z,30.37
2018-12-31T10:58:56.258Z,30.18
2018-12-31T10:59:56.213Z,30.18
2018-12-31T11:00:56.164Z,30.18
2018-12-31T11:01:56.119Z,30.56
2018-12-31T11:02:56.083Z,30.56
2018-12-31T11:03:56.026Z,30.46
2018-12-31T11:04:55.978Z,30.56
2018-12-31T11:05:55.934Z,30.46
2018-12-31T11:06:55.886Z,30.66
2018-12-31T11:07:55.842Z,30.46
2018-12-31T11:08:55.793Z,30.46
2018-12-31T11:09:55.746Z,30.46
2018-12-31T11:10:55.701Z,30.56
2018-12-31T11:11:55.654Z,30.27
2018-12-31T11:12:55.656Z,30.18
2018-12-31T11:13:55.611Z,30.56
2018-12-31T11:14:55.515Z,30.27
2018-12-31T11:15:55.469Z,29.89
2018-12-31T11:16:55.425Z,30.56
2018-12-31T11:17:56.630Z,29.79
2018-12-31T11:18:55.328Z,30.46
2018-12-31T11:19:55.282Z,30.37
2018-12-31T11:20:55.241Z,29.89
2018-12-31T11:21:55.189Z,30.56
2018-12-31T11:22:55.161Z,30.56
2018-12-31T11:23:55.097Z,29.98
2018-12-31T11:24:55.049Z,30.37
2018-12-31T11:25:55.003Z,30.46
2018-12-31T11:26:54.959Z,29.98
2018-12-31T11:27:54.911Z,30.46
2018-12-31T11:28:54.864Z,29.98
2018-12-31T11:29:54.817Z,29.79
2018-12-31T11:30:54.770Z,30.56
2018-12-31T11:31:54.725Z,30.18
2018-12-31T11:32:54.678Z,30.56
2018-12-31T11:33:54.634Z,30.66
2018-12-31T11:34:54.588Z,30.18
2018-12-31T11:35:54.539Z,30.56
2018-12-31T11:36:54.492Z,30.18
2018-12-31T11:37:54.445Z,30.37
2018-12-31T11:38:54.399Z,30.66
2018-12-31T11:39:54.352Z,30.37
2018-12-31T11:40:54.330Z,30.18
2018-12-31T11:41:54.259Z,30.56
2018-12-31T11:42:54.213Z,30.18
2018-12-31T11:43:54.167Z,30.46
2018-12-31T11:44:54.122Z,30.56
2018-12-31T11:45:54.073Z,30.37
2018-12-31T11:46:54.026Z,30.46
2018-12-31T11:47:53.981Z,30.46
2018-12-31T11:48:53.934Z,30.46
2018-12-31T11:49:53.888Z,30.46
2018-12-31T11:50:53.841Z,30.56
2018-12-31T11:51:53.794Z,30.56
2018-12-31T11:52:53.747Z,30.56
2018-12-31T11:53:53.701Z,30.56
2018-12-31T11:54:53.655Z,30.46
2018-12-31T11:55:53.609Z,30.56
2018-12-31T11:56:53.612Z,30.56
2018-12-31T11:57:53.515Z,30.46
2018-12-31T11:58:53.470Z,30.46
2018-12-31T11:59:53.423Z,30.56
2018-12-31T12:00:53.376Z,30.46
2018-12-31T12:01:53.329Z,30.56
2018-12-31T12:02:53.283Z,30.46
2018-12-31T12:03:53.237Z,30.46
2018-12-31T12:04:53.190Z,30.56
2018-12-31T12:05:53.143Z,30.56
2018-12-31T12:06:53.097Z,30.46
2018-12-31T12:07:53.054Z,30.46
2018-12-31T12:08:53.003Z,30.46
2018-12-31T12:09:52.963Z,30.56
2018-12-31T12:10:52.911Z,30.46
2018-12-31T12:11:52.865Z,30.46
2018-12-31T12:12:52.817Z,30.27
2018-12-31T12:13:52.772Z,30.46
2018-12-31T12:14:52.726Z,30.66
2018-12-31T12:15:52.679Z,30.46
2018-12-31T12:16:52.632Z,30.56
2018-12-31T12:17:52.585Z,30.56
2018-12-31T12:18:52.539Z,30.46
2018-12-31T12:19:52.493Z,30.46
2018-12-31T12:20:52.446Z,30.37
2018-12-31T12:21:52.399Z,30.56
2018-12-31T12:22:52.355Z,30.56
2018-12-31T12:23:52.307Z,30.46
2018-12-31T12:24:52.262Z,30.46
2018-12-31T12:25:52.214Z,30.37
2018-12-31T12:26:52.168Z,30.66
2018-12-31T12:27:52.122Z,30.56
2018-12-31T12:28:52.073Z,30.56
2018-12-31T12:29:52.028Z,30.46
2018-12-31T12:30:51.981Z,30.56
2018-12-31T12:31:51.935Z,30.56
2018-12-31T12:32:51.887Z,30.46
2018-12-31T12:33:51.842Z,30.56
2018-12-31T12:34:51.796Z,30.56
2018-12-31T12:35:51.749Z,30.46
2018-12-31T12:36:51.702Z,30.56
2018-12-31T12:37:51.656Z,30.56
2018-12-31T12:38:51.608Z,30.46
2018-12-31T12:39:51.564Z,30.46
2018-12-31T12:40:51.566Z,30.56
2018-12-31T12:41:51.470Z,30.37
2018-12-31T12:42:51.435Z,30.56
2018-12-31T12:43:51.377Z,30.37
2018-12-31T12:44:51.329Z,30.56
2018-12-31T12:45:51.282Z,30.66
2018-12-31T12:46:51.237Z,30.66
2018-12-31T12:47:51.191Z,30.66
2018-12-31T12:48:51.142Z,30.56
2018-12-31T12:49:51.097Z,30.66
2018-12-31T12:50:51.051Z,30.76
2018-12-31T12:51:51.005Z,30.66